sensor_id;sensor_type;location;lat;lon;timestamp;P1;durP1;ratioP1;P2;durP2;ratioP2
11620;SDS011;5866;49.094;11.900;2022-10-03T00:00:39;52.63;;;48.80;;
11620;SDS011;5866;49.094;11.900;2022-10-03T00:03:29;53.90;;;50.23;;
11620;SDS011;5866;49.094;11.900;2022-10-03T00:06:08;63.85;;;59.33;;
11620;SDS011;5866;49.094;11.900;2022-10-03T00:08:50;66.65;;;62.30;;
11620;SDS011;5866;49.094;11.900;2022-10-03T00:11:31;62.33;;;57.88;;
11620;SDS011;5866;49.094;11.900;2022-10-03T00:14:12;67.20;;;62.47;;
11620;SDS011;5866;49.094;11.900;2022-10-03T00:16:47;63.35;;;58.67;;
11620;SDS011;5866;49.094;11.900;2022-10-03T00:19:27;68.63;;;63.65;;
11620;SDS011;5866;49.094;11.900;2022-10-03T00:22:07;85.65;;;80.28;;
11620;SDS011;5866;49.094;11.900;2022-10-03T00:24:51;79.03;;;73.75;;
11620;SDS011;5866;49.094;11.900;2022-10-03T00:27:30;77.47;;;72.17;;
11620;SDS011;5866;49.094;11.900;2022-10-03T00:30:13;59.90;;;55.33;;
11620;SDS011;5866;49.094;11.900;2022-10-03T00:32:45;74.78;;;69.68;;
11620;SDS011;5866;49.094;11.900;2022-10-03T00:35:40;65.00;;;60.33;;
11620;SDS011;5866;49.094;11.900;2022-10-03T00:41:15;65.73;;;61.20;;
11620;SDS011;5866;49.094;11.900;2022-10-03T00:49:55;73.15;;;67.90;;
11620;SDS011;5866;49.094;11.900;2022-10-03T00:52:41;68.10;;;63.53;;
11620;SDS011;5866;49.094;11.900;2022-10-03T00:55:29;43.80;;;40.05;;
11620;SDS011;5866;49.094;11.900;2022-10-03T00:58:15;41.13;;;37.40;;
11620;SDS011;5866;49.094;11.900;2022-10-03T01:01:19;41.55;;;37.85;;
11620;SDS011;5866;49.094;11.900;2022-10-03T01:03:53;42.05;;;38.17;;
11620;SDS011;5866;49.094;11.900;2022-10-03T01:06:33;71.18;;;66.43;;
11620;SDS011;5866;49.094;11.900;2022-10-03T01:09:16;60.50;;;56.00;;
11620;SDS011;5866;49.094;11.900;2022-10-03T01:11:54;60.53;;;55.80;;
11620;SDS011;5866;49.094;11.900;2022-10-03T01:14:35;59.83;;;55.60;;
11620;SDS011;5866;49.094;11.900;2022-10-03T01:17:26;59.83;;;55.30;;
11620;SDS011;5866;49.094;11.900;2022-10-03T01:20:08;69.88;;;64.88;;
11620;SDS011;5866;49.094;11.900;2022-10-03T01:26:04;51.80;;;48.07;;
11620;SDS011;5866;49.094;11.900;2022-10-03T01:28:44;67.18;;;62.28;;
11620;SDS011;5866;49.094;11.900;2022-10-03T01:31:37;66.90;;;62.00;;
11620;SDS011;5866;49.094;11.900;2022-10-03T01:34:12;76.50;;;71.10;;
11620;SDS011;5866;49.094;11.900;2022-10-03T01:36:51;73.97;;;68.30;;
11620;SDS011;5866;49.094;11.900;2022-10-03T01:39:26;67.50;;;62.33;;
11620;SDS011;5866;49.094;11.900;2022-10-03T01:42:00;78.90;;;72.43;;
11620;SDS011;5866;49.094;11.900;2022-10-03T01:44:37;82.73;;;76.17;;
11620;SDS011;5866;49.094;11.900;2022-10-03T01:47:19;66.00;;;60.70;;
11620;SDS011;5866;49.094;11.900;2022-10-03T01:49:56;77.90;;;71.97;;
11620;SDS011;5866;49.094;11.900;2022-10-03T01:52:33;68.80;;;63.67;;
11620;SDS011;5866;49.094;11.900;2022-10-03T01:55:09;55.17;;;50.33;;
11620;SDS011;5866;49.094;11.900;2022-10-03T01:57:43;64.50;;;59.13;;
11620;SDS011;5866;49.094;11.900;2022-10-03T02:00:18;53.17;;;48.13;;
11620;SDS011;5866;49.094;11.900;2022-10-03T02:02:51;49.35;;;44.75;;
11620;SDS011;5866;49.094;11.900;2022-10-03T02:05:27;56.87;;;51.60;;
11620;SDS011;5866;49.094;11.900;2022-10-03T02:08:09;62.67;;;57.92;;
11620;SDS011;5866;49.094;11.900;2022-10-03T02:10:51;54.43;;;50.03;;
11620;SDS011;5866;49.094;11.900;2022-10-03T02:13:22;54.90;;;49.65;;
11620;SDS011;5866;49.094;11.900;2022-10-03T02:15:56;56.43;;;51.67;;
11620;SDS011;5866;49.094;11.900;2022-10-03T02:18:35;60.47;;;55.42;;
11620;SDS011;5866;49.094;11.900;2022-10-03T02:21:11;59.70;;;54.77;;
11620;SDS011;5866;49.094;11.900;2022-10-03T02:23:44;62.97;;;57.88;;
11620;SDS011;5866;49.094;11.900;2022-10-03T02:26:37;75.57;;;69.83;;
11620;SDS011;5866;49.094;11.900;2022-10-03T02:29:30;85.97;;;79.85;;
11620;SDS011;5866;49.094;11.900;2022-10-03T02:35:28;70.50;;;64.87;;
11620;SDS011;5866;49.094;11.900;2022-10-03T02:38:19;61.40;;;56.13;;
11620;SDS011;5866;49.094;11.900;2022-10-03T02:41:09;65.03;;;59.05;;
11620;SDS011;5866;49.094;11.900;2022-10-03T02:44:05;66.40;;;60.72;;
11620;SDS011;5866;49.094;11.900;2022-10-03T02:53:20;58.83;;;54.03;;
11620;SDS011;5866;49.094;11.900;2022-10-03T02:56:05;65.95;;;60.28;;
11620;SDS011;5866;49.094;11.900;2022-10-03T02:59:04;79.32;;;73.28;;
11620;SDS011;5866;49.094;11.900;2022-10-03T03:01:58;81.95;;;76.18;;
11620;SDS011;5866;49.094;11.900;2022-10-03T03:04:53;72.45;;;66.63;;
11620;SDS011;5866;49.094;11.900;2022-10-03T03:07:54;75.15;;;69.70;;
11620;SDS011;5866;49.094;11.900;2022-10-03T03:10:40;76.55;;;70.63;;
11620;SDS011;5866;49.094;11.900;2022-10-03T03:16:41;76.47;;;70.45;;
11620;SDS011;5866;49.094;11.900;2022-10-03T03:19:36;68.73;;;63.00;;
11620;SDS011;5866;49.094;11.900;2022-10-03T03:22:15;61.70;;;56.45;;
11620;SDS011;5866;49.094;11.900;2022-10-03T03:25:02;41.47;;;37.17;;
11620;SDS011;5866;49.094;11.900;2022-10-03T03:27:47;41.23;;;36.93;;
11620;SDS011;5866;49.094;11.900;2022-10-03T03:30:24;50.88;;;45.97;;
11620;SDS011;5866;49.094;11.900;2022-10-03T03:33:01;43.17;;;39.28;;
11620;SDS011;5866;49.094;11.900;2022-10-03T03:35:39;55.93;;;51.27;;
11620;SDS011;5866;49.094;11.900;2022-10-03T03:38:21;56.63;;;52.20;;
11620;SDS011;5866;49.094;11.900;2022-10-03T03:41:00;65.82;;;60.17;;
11620;SDS011;5866;49.094;11.900;2022-10-03T03:43:51;62.07;;;57.17;;
11620;SDS011;5866;49.094;11.900;2022-10-03T03:46:40;69.20;;;63.47;;
11620;SDS011;5866;49.094;11.900;2022-10-03T03:49:20;62.63;;;57.93;;
11620;SDS011;5866;49.094;11.900;2022-10-03T03:52:00;63.25;;;58.17;;
11620;SDS011;5866;49.094;11.900;2022-10-03T03:54:49;64.50;;;59.40;;
11620;SDS011;5866;49.094;11.900;2022-10-03T03:57:37;63.20;;;58.13;;
11620;SDS011;5866;49.094;11.900;2022-10-03T04:00:27;66.03;;;60.85;;
11620;SDS011;5866;49.094;11.900;2022-10-03T04:03:04;66.88;;;61.15;;
11620;SDS011;5866;49.094;11.900;2022-10-03T04:05:47;54.47;;;49.58;;
11620;SDS011;5866;49.094;11.900;2022-10-03T04:08:32;54.95;;;49.67;;
11620;SDS011;5866;49.094;11.900;2022-10-03T04:11:16;56.17;;;51.27;;
11620;SDS011;5866;49.094;11.900;2022-10-03T04:14:00;59.65;;;54.67;;
11620;SDS011;5866;49.094;11.900;2022-10-03T04:16:55;54.10;;;49.37;;
11620;SDS011;5866;49.094;11.900;2022-10-03T04:19:57;50.53;;;46.13;;
11620;SDS011;5866;49.094;11.900;2022-10-03T04:22:40;54.28;;;49.95;;
11620;SDS011;5866;49.094;11.900;2022-10-03T04:25:36;48.00;;;43.63;;
11620;SDS011;5866;49.094;11.900;2022-10-03T04:28:23;51.50;;;47.38;;
11620;SDS011;5866;49.094;11.900;2022-10-03T04:31:16;50.57;;;46.07;;
11620;SDS011;5866;49.094;11.900;2022-10-03T04:34:00;46.95;;;42.45;;
11620;SDS011;5866;49.094;11.900;2022-10-03T04:36:57;54.90;;;50.72;;
11620;SDS011;5866;49.094;11.900;2022-10-03T04:39:34;52.97;;;48.40;;
11620;SDS011;5866;49.094;11.900;2022-10-03T04:42:11;60.90;;;55.87;;
11620;SDS011;5866;49.094;11.900;2022-10-03T04:44:50;52.95;;;48.42;;
11620;SDS011;5866;49.094;11.900;2022-10-03T04:47:32;55.37;;;50.63;;
11620;SDS011;5866;49.094;11.900;2022-10-03T04:50:12;55.45;;;50.50;;
11620;SDS011;5866;49.094;11.900;2022-10-03T04:52:54;54.85;;;50.13;;
11620;SDS011;5866;49.094;11.900;2022-10-03T04:55:28;56.03;;;51.08;;
11620;SDS011;5866;49.094;11.900;2022-10-03T04:58:03;35.72;;;31.85;;
11620;SDS011;5866;49.094;11.900;2022-10-03T05:00:46;58.60;;;53.72;;
11620;SDS011;5866;49.094;11.900;2022-10-03T05:03:26;51.25;;;46.60;;
11620;SDS011;5866;49.094;11.900;2022-10-03T05:05:59;39.08;;;35.63;;
11620;SDS011;5866;49.094;11.900;2022-10-03T05:08:43;46.35;;;41.97;;
11620;SDS011;5866;49.094;11.900;2022-10-03T05:11:18;56.92;;;52.10;;
11620;SDS011;5866;49.094;11.900;2022-10-03T05:13:55;51.92;;;47.40;;
11620;SDS011;5866;49.094;11.900;2022-10-03T05:16:35;53.30;;;49.13;;
11620;SDS011;5866;49.094;11.900;2022-10-03T05:19:18;53.08;;;48.17;;
11620;SDS011;5866;49.094;11.900;2022-10-03T05:22:00;51.10;;;46.67;;
11620;SDS011;5866;49.094;11.900;2022-10-03T05:24:35;60.80;;;55.85;;
11620;SDS011;5866;49.094;11.900;2022-10-03T05:27:12;54.70;;;49.88;;
11620;SDS011;5866;49.094;11.900;2022-10-03T05:29:50;45.72;;;41.75;;
11620;SDS011;5866;49.094;11.900;2022-10-03T05:32:26;50.67;;;46.47;;
11620;SDS011;5866;49.094;11.900;2022-10-03T05:35:05;51.08;;;46.47;;
11620;SDS011;5866;49.094;11.900;2022-10-03T05:37:57;53.17;;;47.95;;
11620;SDS011;5866;49.094;11.900;2022-10-03T05:40:47;51.90;;;47.65;;
11620;SDS011;5866;49.094;11.900;2022-10-03T05:43:31;54.05;;;48.88;;
11620;SDS011;5866;49.094;11.900;2022-10-03T05:46:12;54.53;;;50.08;;
11620;SDS011;5866;49.094;11.900;2022-10-03T05:48:49;51.85;;;47.53;;
11620;SDS011;5866;49.094;11.900;2022-10-03T05:51:35;46.08;;;42.17;;
11620;SDS011;5866;49.094;11.900;2022-10-03T05:54:38;49.80;;;45.47;;
11620;SDS011;5866;49.094;11.900;2022-10-03T05:57:35;49.13;;;44.65;;
11620;SDS011;5866;49.094;11.900;2022-10-03T06:00:15;50.50;;;46.20;;
11620;SDS011;5866;49.094;11.900;2022-10-03T06:02:50;48.20;;;43.70;;
11620;SDS011;5866;49.094;11.900;2022-10-03T06:05:35;50.35;;;46.55;;
11620;SDS011;5866;49.094;11.900;2022-10-03T06:11:33;49.60;;;45.17;;
11620;SDS011;5866;49.094;11.900;2022-10-03T06:14:23;47.10;;;42.85;;
11620;SDS011;5866;49.094;11.900;2022-10-03T06:17:02;55.42;;;50.30;;
11620;SDS011;5866;49.094;11.900;2022-10-03T06:19:46;55.50;;;50.00;;
11620;SDS011;5866;49.094;11.900;2022-10-03T06:22:28;44.45;;;40.92;;
11620;SDS011;5866;49.094;11.900;2022-10-03T06:25:21;50.33;;;46.08;;
11620;SDS011;5866;49.094;11.900;2022-10-03T06:34:37;28.52;;;24.38;;
11620;SDS011;5866;49.094;11.900;2022-10-03T06:37:23;34.80;;;31.48;;
11620;SDS011;5866;49.094;11.900;2022-10-03T06:40:19;25.70;;;22.55;;
11620;SDS011;5866;49.094;11.900;2022-10-03T06:43:25;24.55;;;21.70;;
11620;SDS011;5866;49.094;11.900;2022-10-03T06:49:31;20.45;;;18.35;;
11620;SDS011;5866;49.094;11.900;2022-10-03T06:52:15;19.63;;;17.13;;
11620;SDS011;5866;49.094;11.900;2022-10-03T06:55:04;16.42;;;13.93;;
11620;SDS011;5866;49.094;11.900;2022-10-03T07:01:00;19.38;;;14.63;;
11620;SDS011;5866;49.094;11.900;2022-10-03T07:07:01;14.93;;;13.70;;
11620;SDS011;5866;49.094;11.900;2022-10-03T07:09:57;15.52;;;13.95;;
11620;SDS011;5866;49.094;11.900;2022-10-03T07:12:52;15.70;;;14.02;;
11620;SDS011;5866;49.094;11.900;2022-10-03T07:15:43;18.38;;;15.32;;
11620;SDS011;5866;49.094;11.900;2022-10-03T07:25:09;19.42;;;17.60;;
11620;SDS011;5866;49.094;11.900;2022-10-03T07:31:07;12.65;;;11.27;;
11620;SDS011;5866;49.094;11.900;2022-10-03T07:34:05;13.35;;;12.05;;
11620;SDS011;5866;49.094;11.900;2022-10-03T07:36:50;16.65;;;15.15;;
11620;SDS011;5866;49.094;11.900;2022-10-03T07:46:25;15.32;;;13.30;;
11620;SDS011;5866;49.094;11.900;2022-10-03T07:49:12;14.75;;;13.20;;
11620;SDS011;5866;49.094;11.900;2022-10-03T07:51:58;18.10;;;16.48;;
11620;SDS011;5866;49.094;11.900;2022-10-03T07:54:55;14.48;;;13.35;;
11620;SDS011;5866;49.094;11.900;2022-10-03T07:57:52;41.42;;;38.70;;
11620;SDS011;5866;49.094;11.900;2022-10-03T08:00:59;49.85;;;46.72;;
11620;SDS011;5866;49.094;11.900;2022-10-03T08:06:37;12.65;;;11.25;;
11620;SDS011;5866;49.094;11.900;2022-10-03T08:09:14;15.73;;;14.20;;
11620;SDS011;5866;49.094;11.900;2022-10-03T08:12:13;40.47;;;37.90;;
11620;SDS011;5866;49.094;11.900;2022-10-03T08:14:56;44.60;;;41.67;;
11620;SDS011;5866;49.094;11.900;2022-10-03T08:17:43;32.10;;;29.75;;
11620;SDS011;5866;49.094;11.900;2022-10-03T08:20:31;34.80;;;32.42;;
11620;SDS011;5866;49.094;11.900;2022-10-03T08:23:29;20.95;;;19.45;;
11620;SDS011;5866;49.094;11.900;2022-10-03T08:26:11;14.98;;;13.88;;
11620;SDS011;5866;49.094;11.900;2022-10-03T08:28:49;11.05;;;9.95;;
11620;SDS011;5866;49.094;11.900;2022-10-03T08:34:58;10.48;;;5.07;;
11620;SDS011;5866;49.094;11.900;2022-10-03T08:38:12;19.73;;;18.27;;
11620;SDS011;5866;49.094;11.900;2022-10-03T08:50:30;8.27;;;7.68;;
11620;SDS011;5866;49.094;11.900;2022-10-03T08:56:45;22.15;;;20.60;;
11620;SDS011;5866;49.094;11.900;2022-10-03T08:59:50;25.23;;;23.55;;
11620;SDS011;5866;49.094;11.900;2022-10-03T09:02:55;28.25;;;26.55;;
11620;SDS011;5866;49.094;11.900;2022-10-03T09:06:12;25.45;;;23.70;;
11620;SDS011;5866;49.094;11.900;2022-10-03T09:11:57;14.15;;;12.82;;
11620;SDS011;5866;49.094;11.900;2022-10-03T09:14:50;24.58;;;22.95;;
11620;SDS011;5866;49.094;11.900;2022-10-03T09:17:48;13.00;;;11.80;;
11620;SDS011;5866;49.094;11.900;2022-10-03T09:20:35;24.08;;;22.30;;
11620;SDS011;5866;49.094;11.900;2022-10-03T09:23:58;24.85;;;23.25;;
11620;SDS011;5866;49.094;11.900;2022-10-03T09:29:49;36.47;;;34.05;;
11620;SDS011;5866;49.094;11.900;2022-10-03T09:35:34;17.63;;;16.10;;
11620;SDS011;5866;49.094;11.900;2022-10-03T09:38:27;29.02;;;26.95;;
11620;SDS011;5866;49.094;11.900;2022-10-03T09:44:20;19.40;;;17.92;;
11620;SDS011;5866;49.094;11.900;2022-10-03T09:50:14;37.33;;;35.13;;
11620;SDS011;5866;49.094;11.900;2022-10-03T09:53:16;26.17;;;24.67;;
11620;SDS011;5866;49.094;11.900;2022-10-03T09:56:10;18.63;;;17.40;;
11620;SDS011;5866;49.094;11.900;2022-10-03T09:59:05;20.70;;;19.20;;
11620;SDS011;5866;49.094;11.900;2022-10-03T10:01:46;18.45;;;17.17;;
11620;SDS011;5866;49.094;11.900;2022-10-03T10:04:32;31.55;;;29.65;;
11620;SDS011;5866;49.094;11.900;2022-10-03T10:07:34;18.98;;;17.77;;
11620;SDS011;5866;49.094;11.900;2022-10-03T10:10:39;34.15;;;32.03;;
11620;SDS011;5866;49.094;11.900;2022-10-03T10:16:48;14.38;;;12.93;;
11620;SDS011;5866;49.094;11.900;2022-10-03T10:19:37;17.73;;;16.67;;
11620;SDS011;5866;49.094;11.900;2022-10-03T10:22:37;19.27;;;18.13;;
11620;SDS011;5866;49.094;11.900;2022-10-03T10:25:35;11.32;;;10.45;;
11620;SDS011;5866;49.094;11.900;2022-10-03T10:31:39;19.27;;;18.08;;
11620;SDS011;5866;49.094;11.900;2022-10-03T10:35:01;27.92;;;25.98;;
11620;SDS011;5866;49.094;11.900;2022-10-03T10:41:04;12.40;;;11.50;;
11620;SDS011;5866;49.094;11.900;2022-10-03T10:47:10;15.95;;;14.77;;
11620;SDS011;5866;49.094;11.900;2022-10-03T10:50:07;29.35;;;27.65;;
11620;SDS011;5866;49.094;11.900;2022-10-03T10:56:07;13.23;;;12.02;;
11620;SDS011;5866;49.094;11.900;2022-10-03T11:08:10;27.40;;;25.70;;
11620;SDS011;5866;49.094;11.900;2022-10-03T11:14:24;16.38;;;15.18;;
11620;SDS011;5866;49.094;11.900;2022-10-03T11:17:16;19.65;;;18.45;;
11620;SDS011;5866;49.094;11.900;2022-10-03T11:23:19;12.93;;;11.68;;
11620;SDS011;5866;49.094;11.900;2022-10-03T11:32:32;17.45;;;16.42;;
11620;SDS011;5866;49.094;11.900;2022-10-03T11:38:26;19.63;;;18.38;;
11620;SDS011;5866;49.094;11.900;2022-10-03T11:40:59;20.60;;;19.10;;
11620;SDS011;5866;49.094;11.900;2022-10-03T11:46:45;32.80;;;30.65;;
11620;SDS011;5866;49.094;11.900;2022-10-03T11:49:25;26.17;;;24.63;;
11620;SDS011;5866;49.094;11.900;2022-10-03T11:52:09;24.55;;;22.95;;
11620;SDS011;5866;49.094;11.900;2022-10-03T11:54:54;13.00;;;11.90;;
11620;SDS011;5866;49.094;11.900;2022-10-03T11:57:33;14.45;;;13.50;;
11620;SDS011;5866;49.094;11.900;2022-10-03T12:00:07;18.08;;;16.45;;
11620;SDS011;5866;49.094;11.900;2022-10-03T12:02:47;18.13;;;16.77;;
11620;SDS011;5866;49.094;11.900;2022-10-03T12:05:43;13.65;;;12.68;;
11620;SDS011;5866;49.094;11.900;2022-10-03T12:08:21;20.77;;;19.48;;
11620;SDS011;5866;49.094;11.900;2022-10-03T12:11:15;19.73;;;18.52;;
11620;SDS011;5866;49.094;11.900;2022-10-03T12:13:57;14.57;;;13.43;;
11620;SDS011;5866;49.094;11.900;2022-10-03T12:16:44;20.85;;;19.35;;
11620;SDS011;5866;49.094;11.900;2022-10-03T12:19:26;21.15;;;19.75;;
11620;SDS011;5866;49.094;11.900;2022-10-03T12:22:00;10.00;;;9.30;;
11620;SDS011;5866;49.094;11.900;2022-10-03T12:24:39;21.02;;;19.65;;
11620;SDS011;5866;49.094;11.900;2022-10-03T12:27:11;17.60;;;16.30;;
11620;SDS011;5866;49.094;11.900;2022-10-03T12:29:50;16.27;;;15.23;;
11620;SDS011;5866;49.094;11.900;2022-10-03T12:32:31;17.92;;;16.52;;
11620;SDS011;5866;49.094;11.900;2022-10-03T12:35:14;25.48;;;23.67;;
11620;SDS011;5866;49.094;11.900;2022-10-03T12:38:03;18.42;;;16.92;;
11620;SDS011;5866;49.094;11.900;2022-10-03T12:40:40;18.23;;;16.85;;
11620;SDS011;5866;49.094;11.900;2022-10-03T12:43:16;19.50;;;18.35;;
11620;SDS011;5866;49.094;11.900;2022-10-03T12:45:59;17.02;;;15.82;;
11620;SDS011;5866;49.094;11.900;2022-10-03T12:48:34;22.35;;;20.67;;
11620;SDS011;5866;49.094;11.900;2022-10-03T12:51:12;19.10;;;17.67;;
11620;SDS011;5866;49.094;11.900;2022-10-03T12:53:56;25.90;;;24.40;;
11620;SDS011;5866;49.094;11.900;2022-10-03T12:56:33;21.23;;;19.90;;
11620;SDS011;5866;49.094;11.900;2022-10-03T12:59:16;24.27;;;22.73;;
11620;SDS011;5866;49.094;11.900;2022-10-03T13:02:00;24.02;;;22.60;;
11620;SDS011;5866;49.094;11.900;2022-10-03T13:04:44;20.33;;;19.10;;
11620;SDS011;5866;49.094;11.900;2022-10-03T13:07:24;18.60;;;17.17;;
11620;SDS011;5866;49.094;11.900;2022-10-03T13:10:02;14.60;;;13.63;;
11620;SDS011;5866;49.094;11.900;2022-10-03T13:12:42;21.95;;;20.58;;
11620;SDS011;5866;49.094;11.900;2022-10-03T13:18:28;21.45;;;19.80;;
11620;SDS011;5866;49.094;11.900;2022-10-03T13:21:06;19.55;;;18.38;;
11620;SDS011;5866;49.094;11.900;2022-10-03T13:23:57;23.67;;;22.17;;
11620;SDS011;5866;49.094;11.900;2022-10-03T13:26:37;21.80;;;20.52;;
11620;SDS011;5866;49.094;11.900;2022-10-03T13:29:14;16.30;;;15.27;;
11620;SDS011;5866;49.094;11.900;2022-10-03T13:31:52;23.60;;;22.00;;
11620;SDS011;5866;49.094;11.900;2022-10-03T13:34:27;25.83;;;24.20;;
11620;SDS011;5866;49.094;11.900;2022-10-03T13:37:02;13.25;;;12.30;;
11620;SDS011;5866;49.094;11.900;2022-10-03T13:39:38;20.80;;;19.27;;
11620;SDS011;5866;49.094;11.900;2022-10-03T13:42:15;18.95;;;17.67;;
11620;SDS011;5866;49.094;11.900;2022-10-03T13:44:47;25.52;;;23.92;;
11620;SDS011;5866;49.094;11.900;2022-10-03T13:47:24;15.68;;;14.60;;
11620;SDS011;5866;49.094;11.900;2022-10-03T13:49:57;18.08;;;16.80;;
11620;SDS011;5866;49.094;11.900;2022-10-03T13:52:32;21.50;;;20.00;;
11620;SDS011;5866;49.094;11.900;2022-10-03T13:55:09;23.23;;;21.75;;
11620;SDS011;5866;49.094;11.900;2022-10-03T13:57:45;15.25;;;14.32;;
11620;SDS011;5866;49.094;11.900;2022-10-03T14:00:26;32.38;;;30.50;;
11620;SDS011;5866;49.094;11.900;2022-10-03T14:03:09;22.63;;;21.20;;
11620;SDS011;5866;49.094;11.900;2022-10-03T14:05:54;22.48;;;21.17;;
11620;SDS011;5866;49.094;11.900;2022-10-03T14:08:45;28.98;;;27.33;;
11620;SDS011;5866;49.094;11.900;2022-10-03T14:11:28;18.95;;;17.45;;
11620;SDS011;5866;49.094;11.900;2022-10-03T14:14:17;16.42;;;15.13;;
11620;SDS011;5866;49.094;11.900;2022-10-03T14:17:01;27.83;;;26.23;;
11620;SDS011;5866;49.094;11.900;2022-10-03T14:19:38;24.20;;;22.63;;
11620;SDS011;5866;49.094;11.900;2022-10-03T14:22:19;19.95;;;18.30;;
11620;SDS011;5866;49.094;11.900;2022-10-03T14:24:56;22.98;;;21.38;;
11620;SDS011;5866;49.094;11.900;2022-10-03T14:27:37;20.50;;;19.13;;
11620;SDS011;5866;49.094;11.900;2022-10-03T14:30:12;19.30;;;18.17;;
11620;SDS011;5866;49.094;11.900;2022-10-03T14:32:46;22.45;;;20.98;;
11620;SDS011;5866;49.094;11.900;2022-10-03T14:35:30;19.63;;;18.25;;
11620;SDS011;5866;49.094;11.900;2022-10-03T14:38:11;15.70;;;14.70;;
11620;SDS011;5866;49.094;11.900;2022-10-03T14:40:49;21.38;;;19.75;;
11620;SDS011;5866;49.094;11.900;2022-10-03T14:43:27;20.15;;;18.70;;
11620;SDS011;5866;49.094;11.900;2022-10-03T14:46:03;21.35;;;19.80;;
11620;SDS011;5866;49.094;11.900;2022-10-03T14:48:33;26.73;;;24.98;;
11620;SDS011;5866;49.094;11.900;2022-10-03T14:51:07;20.20;;;18.95;;
11620;SDS011;5866;49.094;11.900;2022-10-03T14:53:44;23.83;;;22.40;;
11620;SDS011;5866;49.094;11.900;2022-10-03T14:56:13;23.08;;;21.00;;
11620;SDS011;5866;49.094;11.900;2022-10-03T14:58:47;17.60;;;16.38;;
11620;SDS011;5866;49.094;11.900;2022-10-03T15:01:18;21.10;;;19.63;;
11620;SDS011;5866;49.094;11.900;2022-10-03T15:03:54;25.58;;;24.00;;
11620;SDS011;5866;49.094;11.900;2022-10-03T15:06:31;25.25;;;23.70;;
11620;SDS011;5866;49.094;11.900;2022-10-03T15:09:15;32.17;;;30.27;;
11620;SDS011;5866;49.094;11.900;2022-10-03T15:11:49;31.58;;;29.73;;
11620;SDS011;5866;49.094;11.900;2022-10-03T15:14:21;30.88;;;28.95;;
11620;SDS011;5866;49.094;11.900;2022-10-03T15:16:55;13.52;;;12.30;;
11620;SDS011;5866;49.094;11.900;2022-10-03T15:19:27;13.57;;;12.75;;
11620;SDS011;5866;49.094;11.900;2022-10-03T15:22:03;18.73;;;17.63;;
11620;SDS011;5866;49.094;11.900;2022-10-03T15:24:38;21.38;;;20.08;;
11620;SDS011;5866;49.094;11.900;2022-10-03T15:27:08;19.88;;;18.38;;
11620;SDS011;5866;49.094;11.900;2022-10-03T15:29:45;23.65;;;22.15;;
11620;SDS011;5866;49.094;11.900;2022-10-03T15:32:20;22.10;;;20.23;;
11620;SDS011;5866;49.094;11.900;2022-10-03T15:34:54;25.23;;;23.73;;
11620;SDS011;5866;49.094;11.900;2022-10-03T15:37:25;31.88;;;30.05;;
11620;SDS011;5866;49.094;11.900;2022-10-03T15:40:01;24.25;;;22.63;;
11620;SDS011;5866;49.094;11.900;2022-10-03T15:42:42;28.40;;;26.80;;
11620;SDS011;5866;49.094;11.900;2022-10-03T15:45:18;21.58;;;20.23;;
11620;SDS011;5866;49.094;11.900;2022-10-03T15:47:51;21.77;;;20.55;;
11620;SDS011;5866;49.094;11.900;2022-10-03T15:50:23;20.15;;;18.90;;
11620;SDS011;5866;49.094;11.900;2022-10-03T15:52:54;27.42;;;25.77;;
11620;SDS011;5866;49.094;11.900;2022-10-03T15:55:46;22.77;;;21.33;;
11620;SDS011;5866;49.094;11.900;2022-10-03T15:58:17;20.60;;;19.20;;
11620;SDS011;5866;49.094;11.900;2022-10-03T16:00:51;27.08;;;25.42;;
11620;SDS011;5866;49.094;11.900;2022-10-03T16:03:30;20.55;;;19.25;;
11620;SDS011;5866;49.094;11.900;2022-10-03T16:06:07;23.55;;;22.05;;
11620;SDS011;5866;49.094;11.900;2022-10-03T16:08:42;11.40;;;10.60;;
11620;SDS011;5866;49.094;11.900;2022-10-03T16:11:21;16.67;;;15.45;;
11620;SDS011;5866;49.094;11.900;2022-10-03T16:13:54;22.45;;;20.92;;
11620;SDS011;5866;49.094;11.900;2022-10-03T16:16:34;23.40;;;22.00;;
11620;SDS011;5866;49.094;11.900;2022-10-03T16:19:20;23.65;;;22.00;;
11620;SDS011;5866;49.094;11.900;2022-10-03T16:22:12;33.15;;;31.00;;
11620;SDS011;5866;49.094;11.900;2022-10-03T16:24:56;27.30;;;25.73;;
11620;SDS011;5866;49.094;11.900;2022-10-03T16:27:29;42.78;;;40.20;;
11620;SDS011;5866;49.094;11.900;2022-10-03T16:30:10;37.45;;;35.17;;
11620;SDS011;5866;49.094;11.900;2022-10-03T16:32:48;41.88;;;39.42;;
11620;SDS011;5866;49.094;11.900;2022-10-03T16:35:33;11.65;;;10.75;;
11620;SDS011;5866;49.094;11.900;2022-10-03T16:38:07;9.48;;;8.70;;
11620;SDS011;5866;49.094;11.900;2022-10-03T16:40:48;11.93;;;11.02;;
11620;SDS011;5866;49.094;11.900;2022-10-03T16:43:19;10.15;;;9.50;;
11620;SDS011;5866;49.094;11.900;2022-10-03T16:45:49;12.15;;;11.25;;
11620;SDS011;5866;49.094;11.900;2022-10-03T16:48:18;12.68;;;11.57;;
11620;SDS011;5866;49.094;11.900;2022-10-03T16:51:14;9.88;;;9.13;;
11620;SDS011;5866;49.094;11.900;2022-10-03T16:53:45;12.95;;;11.82;;
11620;SDS011;5866;49.094;11.900;2022-10-03T16:56:15;10.57;;;9.80;;
11620;SDS011;5866;49.094;11.900;2022-10-03T16:58:47;12.18;;;11.10;;
11620;SDS011;5866;49.094;11.900;2022-10-03T17:01:29;11.88;;;10.98;;
11620;SDS011;5866;49.094;11.900;2022-10-03T17:04:11;11.90;;;11.20;;
11620;SDS011;5866;49.094;11.900;2022-10-03T17:06:45;10.77;;;9.88;;
11620;SDS011;5866;49.094;11.900;2022-10-03T17:09:16;12.35;;;11.50;;
11620;SDS011;5866;49.094;11.900;2022-10-03T17:11:50;13.27;;;11.95;;
11620;SDS011;5866;49.094;11.900;2022-10-03T17:14:20;13.48;;;12.43;;
11620;SDS011;5866;49.094;11.900;2022-10-03T17:16:49;13.60;;;12.48;;
11620;SDS011;5866;49.094;11.900;2022-10-03T17:19:25;12.98;;;11.60;;
11620;SDS011;5866;49.094;11.900;2022-10-03T17:22:04;14.93;;;13.70;;
11620;SDS011;5866;49.094;11.900;2022-10-03T17:24:41;14.13;;;12.93;;
11620;SDS011;5866;49.094;11.900;2022-10-03T17:27:17;13.05;;;12.05;;
11620;SDS011;5866;49.094;11.900;2022-10-03T17:29:52;14.23;;;12.82;;
11620;SDS011;5866;49.094;11.900;2022-10-03T17:32:24;11.70;;;10.70;;
11620;SDS011;5866;49.094;11.900;2022-10-03T17:34:58;12.38;;;11.38;;
11620;SDS011;5866;49.094;11.900;2022-10-03T17:37:51;13.40;;;12.20;;
11620;SDS011;5866;49.094;11.900;2022-10-03T17:40:50;15.00;;;13.63;;
11620;SDS011;5866;49.094;11.900;2022-10-03T17:43:28;16.53;;;14.97;;
11620;SDS011;5866;49.094;11.900;2022-10-03T17:46:04;18.40;;;13.90;;
11620;SDS011;5866;49.094;11.900;2022-10-03T17:48:41;14.30;;;12.77;;
11620;SDS011;5866;49.094;11.900;2022-10-03T17:51:24;16.73;;;15.27;;
11620;SDS011;5866;49.094;11.900;2022-10-03T17:54:01;16.13;;;14.80;;
11620;SDS011;5866;49.094;11.900;2022-10-03T17:56:32;14.10;;;12.97;;
11620;SDS011;5866;49.094;11.900;2022-10-03T17:59:02;12.20;;;11.10;;
11620;SDS011;5866;49.094;11.900;2022-10-03T18:01:34;17.67;;;15.97;;
11620;SDS011;5866;49.094;11.900;2022-10-03T18:04:09;12.30;;;11.20;;
11620;SDS011;5866;49.094;11.900;2022-10-03T18:06:46;13.80;;;10.30;;
11620;SDS011;5866;49.094;11.900;2022-10-03T18:09:20;13.30;;;12.20;;
11620;SDS011;5866;49.094;11.900;2022-10-03T18:12:01;11.27;;;10.37;;
11620;SDS011;5866;49.094;11.900;2022-10-03T18:14:41;12.60;;;11.70;;